Time;durP1;ratioP1;P1;durP2;ratioP2;P2;SDS_P1;SDS_P2;PMS_P1;PMS_P2;Temp;Humidity;BMP_temperature;BMP_pressure;BME280_temperature;BME280_humidity;BME280_pressure;Samples;Min_cycle;Max_cycle;Signal;HPM_P1;HPM_P2
2024/04/16 00:01:58;;;;;;;14.85;11.18;;;;;;;30.97;85.97;100939.91;5394660;26;64881;-31
2024/04/16 00:04:29;;;;;;;15.15;11.95;;;;;;;30.99;85.57;100944.06;5380518;26;68444;-31
2024/04/16 00:07:00;;;;;;;18.23;12.05;;;;;;;31.02;86.01;100943.63;5382725;26;65137;-31
2024/04/16 00:09:30;;;;;;;17.17;12.07;;;;;;;31.08;87.59;100948.16;5384414;26;68513;-31
2024/04/16 00:12:02;;;;;;;22.88;12.63;;;;;;;31.13;86.14;100951.03;5382676;26;65349;-31
2024/04/16 00:14:52;;;;;;;19.73;12.73;;;;;;;31.19;85.81;100964.75;5379870;26;68252;-29
2024/04/16 00:17:27;;;;;;;22.80;12.38;;;;;;;31.21;85.78;100963.47;5403068;26;64600;-30
2024/04/16 00:19:58;;;;;;;14.93;11.93;;;;;;;31.26;85.36;100954.66;5381424;26;67911;-32
2024/04/16 00:22:29;;;;;;;16.13;11.13;;;;;;;31.28;85.03;100964.25;5404351;26;63784;-30
2024/04/16 00:25:00;;;;;;;21.10;11.18;;;;;;;31.32;85.84;100959.22;5381159;26;69662;-30
2024/04/16 00:27:32;;;;;;;12.65;10.65;;;;;;;31.35;85.86;100959.59;5370399;26;65067;-32
2024/04/16 00:30:03;;;;;;;11.98;10.10;;;;;;;31.36;85.67;100955.88;5382240;26;68838;-29
2024/04/16 00:32:35;;;;;;;15.65;10.30;;;;;;;31.43;84.95;100963.97;5375551;26;65454;-30
2024/04/16 00:35:06;;;;;;;14.97;10.23;;;;;;;31.45;85.23;100969.97;5386482;26;68853;-30
2024/04/16 00:37:37;;;;;;;14.48;9.77;;;;;;;31.49;85.69;100968.50;5386977;26;65104;-30
2024/04/16 00:40:08;;;;;;;14.23;9.23;;;;;;;31.51;85.13;100963.69;5380265;26;68200;-30
2024/04/16 00:42:39;;;;;;;17.75;9.65;;;;;;;31.53;85.66;100966.97;5381650;26;62812;-31
2024/04/16 00:45:12;;;;;;;14.32;9.25;;;;;;;31.56;85.55;100971.13;5382444;26;67914;-31
2024/04/16 00:47:44;;;;;;;17.90;9.57;;;;;;;31.60;85.11;100973.19;5379992;26;64140;-31
2024/04/16 00:50:15;;;;;;;9.88;8.77;;;;;;;31.64;84.61;100978.16;5380158;26;68629;-30
2024/04/16 00:52:47;;;;;;;11.43;8.15;;;;;;;31.66;86.30;100976.06;5383630;26;65085;-30
2024/04/16 00:55:18;;;;;;;11.70;9.38;;;;;;;31.67;84.92;100975.81;5384750;26;69435;-30
2024/04/16 00:57:51;;;;;;;12.85;9.20;;;;;;;31.55;85.03;100948.59;5386499;26;64773;-30
2024/04/16 01:00:24;;;;;;;11.10;8.27;;;;;;;31.64;85.05;100962.72;5383653;26;68526;-31
2024/04/16 01:02:54;;;;;;;11.30;8.70;;;;;;;31.78;84.04;100990.53;5385450;26;65274;-31
2024/04/16 01:05:27;;;;;;;9.83;8.83;;;;;;;31.59;84.78;100955.25;5384550;26;68694;-30
2024/04/16 01:07:57;;;;;;;;;;;;;;;31.71;86.64;100989.78;5384835;26;64885;-31
2024/04/16 01:10:37;;;;;;;13.77;9.38;;;;;;;31.83;84.85;100991.50;5390644;26;69133;-31
2024/04/16 01:13:10;;;;;;;11.50;7.75;;;;;;;31.88;85.15;100990.84;5385844;26;65075;-35
2024/04/16 01:15:42;;;;;;;11.32;7.78;;;;;;;31.86;84.14;100982.09;5385401;26;68394;-32
2024/04/16 01:18:13;;;;;;;10.90;8.20;;;;;;;31.89;84.64;100973.50;5385629;26;65160;-31
2024/04/16 01:20:45;;;;;;;8.48;7.68;;;;;;;31.88;84.39;100968.31;5382952;26;68785;-30
2024/04/16 01:23:16;;;;;;;8.60;7.25;;;;;;;31.92;84.25;100975.78;5383276;26;63740;-31
2024/04/16 01:25:47;;;;;;;11.48;6.30;;;;;;;31.96;84.09;100965.34;5383944;26;68813;-31
2024/04/16 01:28:18;;;;;;;8.38;6.30;;;;;;;31.98;84.00;100976.78;5383114;26;64392;-30
2024/04/16 01:30:49;;;;;;;7.15;6.45;;;;;;;32.02;83.64;100964.44;5385617;26;69308;-30
2024/04/16 01:33:20;;;;;;;13.70;6.95;;;;;;;32.07;84.59;100961.03;5383438;26;65183;-31
2024/04/16 01:35:53;;;;;;;6.60;5.85;;;;;;;32.08;84.20;100962.69;5405519;26;69046;-32
2024/04/16 01:38:24;;;;;;;7.20;6.05;;;;;;;32.12;83.77;100958.47;5384486;26;64966;-30
2024/04/16 01:40:55;;;;;;;6.57;5.75;;;;;;;32.13;84.59;100962.84;5380989;26;69704;-31
2024/04/16 01:43:26;;;;;;;6.50;5.28;;;;;;;32.18;83.60;100957.56;5393795;26;65371;-30
2024/04/16 01:45:57;;;;;;;9.23;5.65;;;;;;;32.15;83.00;100952.56;5382008;26;68387;-31
2024/04/16 01:48:28;;;;;;;6.65;5.97;;;;;;;32.25;82.85;100958.31;5383606;26;65213;-31
2024/04/16 01:50:59;;;;;;;14.93;6.13;;;;;;;32.26;84.02;100955.38;5382917;26;68731;-31
2024/04/16 01:53:30;;;;;;;6.50;5.90;;;;;;;32.28;82.56;100958.69;5379065;26;63598;-30
2024/04/16 01:56:04;;;;;;;6.35;5.57;;;;;;;32.33;82.91;100954.47;5372888;26;68077;-31
2024/04/16 01:58:37;;;;;;;6.78;5.82;;;;;;;32.36;82.63;100954.00;5386171;26;65782;-31
2024/04/16 02:01:08;;;;;;;6.15;5.55;;;;;;;32.37;82.95;100945.63;5384599;26;68457;-31
2024/04/16 02:03:39;;;;;;;8.30;5.97;;;;;;;32.38;82.87;100952.72;5381299;26;66246;-31
2024/04/16 02:06:11;;;;;;;5.80;5.15;;;;;;;32.45;83.21;100948.00;5373949;26;68099;-31
2024/04/16 02:08:42;;;;;;;6.65;6.05;;;;;;;32.46;81.96;100947.00;5370648;26;64844;-32
2024/04/16 02:11:15;;;;;;;6.93;5.60;;;;;;;32.48;81.69;100936.75;5376645;26;69650;-31
2024/04/16 02:13:45;;;;;;;12.00;6.40;;;;;;;32.55;81.86;100954.84;5385655;26;65095;-31
2024/04/16 02:16:17;;;;;;;6.03;5.60;;;;;;;32.57;82.48;100949.97;5384210;26;68911;-30
2024/04/16 02:18:48;;;;;;;8.20;6.85;;;;;;;32.61;81.33;100962.06;5392253;26;66632;-30
2024/04/16 02:21:19;;;;;;;6.70;5.97;;;;;;;32.63;81.07;100955.34;5386102;26;68162;-31
2024/04/16 02:23:53;;;;;;;6.38;5.78;;;;;;;32.66;81.01;100954.03;5381496;26;64268;-31
2024/04/16 02:26:23;;;;;;;9.68;6.25;;;;;;;32.69;80.88;100953.59;5382955;26;68405;-30
2024/04/16 02:28:54;;;;;;;8.02;5.30;;;;;;;32.72;80.91;100956.66;5384255;26;64096;-31
2024/04/16 02:31:30;;;;;;;6.30;5.45;;;;;;;32.79;81.02;100945.72;5382097;26;68195;-30
2024/04/16 02:34:04;;;;;;;7.38;5.53;;;;;;;32.84;80.82;100950.44;5383529;26;64121;-32
2024/04/16 02:36:38;;;;;;;6.68;5.95;;;;;;;32.88;80.03;100957.91;5385210;26;68633;-31
2024/04/16 02:39:09;;;;;;;6.18;5.78;;;;;;;32.91;81.38;100946.56;5381175;26;65508;-30
2024/04/16 02:41:40;;;;;;;8.13;4.67;;;;;;;32.93;81.01;100944.44;5384039;26;69033;-32
2024/04/16 02:44:14;;;;;;;9.77;5.93;;;;;;;32.75;80.37;100901.03;5382845;26;66577;-31
2024/04/16 02:46:45;;;;;;;6.22;5.75;;;;;;;33.01;80.13;100940.56;5355953;26;68818;-30
2024/04/16 02:49:16;;;;;;;5.68;5.10;;;;;;;33.04;80.86;100931.13;5384273;26;65148;-30
2024/04/16 02:51:47;;;;;;;6.28;5.68;;;;;;;33.07;80.48;100927.94;5391333;26;68472;-31
2024/04/16 02:54:18;;;;;;;8.20;5.53;;;;;;;33.10;80.10;100922.06;5398864;26;66458;-31
2024/04/16 02:56:49;;;;;;;7.13;5.38;;;;;;;33.13;79.96;100916.16;5384871;26;68813;-31
2024/04/16 02:59:20;;;;;;;6.32;5.72;;;;;;;33.17;80.05;100917.31;5382320;26;65045;-31
2024/04/16 03:01:53;;;;;;;6.07;5.63;;;;;;;33.21;79.13;100913.09;5383703;26;68645;-31
2024/04/16 03:04:24;;;;;;;5.65;5.15;;;;;;;33.23;79.22;100900.06;5385782;26;64011;-30
2024/04/16 03:06:55;;;;;;;9.30;5.65;;;;;;;33.25;78.95;100903.38;5383020;26;69300;-31
2024/04/16 03:09:27;;;;;;;7.00;5.87;;;;;;;33.28;79.27;100902.91;5384322;26;66085;-31
2024/04/16 03:11:58;;;;;;;7.30;5.55;;;;;;;33.32;79.34;100893.22;5382977;26;68421;-31
2024/04/16 03:14:35;;;;;;;7.60;5.00;;;;;;;33.38;79.01;100902.31;5375611;26;64675;-31
2024/04/16 03:17:09;;;;;;;9.43;5.97;;;;;;;33.39;79.16;100901.25;5384316;26;69484;-31
2024/04/16 03:19:40;;;;;;;9.50;5.57;;;;;;;33.44;78.91;100889.69;5377856;26;65096;-32
2024/04/16 03:22:11;;;;;;;5.68;5.28;;;;;;;33.47;78.60;100895.47;5384330;26;68407;-31
2024/04/16 03:24:43;;;;;;;7.80;5.22;;;;;;;33.49;79.15;100892.47;5386751;26;64102;-32
2024/04/16 03:27:13;;;;;;;5.65;5.05;;;;;;;33.54;78.34;100889.91;5390833;26;68954;-31
2024/04/16 03:29:44;;;;;;;5.07;4.68;;;;;;;33.57;78.23;100894.88;5370684;26;65229;-31
2024/04/16 03:32:16;;;;;;;7.95;5.55;;;;;;;33.59;78.69;100888.13;5385576;26;69003;-32
2024/04/16 03:34:48;;;;;;;5.60;5.20;;;;;;;33.64;79.02;100890.16;5381512;26;65924;-32
2024/04/16 03:37:19;;;;;;;;;;;;;;;33.62;79.22;100886.00;5384107;26;68756;-31
2024/04/16 03:39:50;;;;;;;7.35;5.10;;;;;;;33.70;77.82;100878.28;5382709;26;65346;-31
2024/04/16 03:42:21;;;;;;;5.47;5.07;;;;;;;33.72;78.91;100869.91;5377887;26;68766;-31
2024/04/16 03:44:55;;;;;;;5.87;5.23;;;;;;;33.75;77.85;100872.16;5384076;26;65266;-33
2024/04/16 03:47:26;;;;;;;7.00;5.80;;;;;;;33.77;77.97;100865.41;5379532;26;69588;-31
2024/04/16 03:50:02;;;;;;;5.38;4.95;;;;;;;33.79;78.68;100857.84;5382377;26;65785;-33
2024/04/16 03:52:33;;;;;;;5.60;5.20;;;;;;;33.76;77.59;100843.88;5384656;26;68939;-31
2024/04/16 03:55:05;;;;;;;4.47;4.13;;;;;;;33.86;78.40;100854.16;5381834;26;64342;-32
2024/04/16 03:57:39;;;;;;;5.30;4.78;;;;;;;33.89;78.28;100861.81;5382741;26;67926;-31
2024/04/16 04:03:00;;;;;;;5.40;4.88;;;;;;;33.93;77.97;100852.91;5389582;26;69100;-31
2024/04/16 04:05:31;;;;;;;;;;;;;;;33.93;78.41;100846.66;5366372;26;64906;-31
2024/04/16 04:08:01;;;;;;;5.20;4.68;;;;;;;34.02;77.77;100842.50;5384285;26;70352;-31
2024/04/16 04:10:32;;;;;;;9.95;4.97;;;;;;;34.02;77.74;100831.59;5384676;26;65055;-30
2024/04/16 04:13:04;;;;;;;5.25;4.78;;;;;;;34.07;77.46;100830.88;5382485;26;68882;-31
2024/04/16 04:15:37;;;;;;;5.35;4.97;;;;;;;34.08;77.57;100830.66;5382199;26;65165;-32
2024/04/16 04:18:09;;;;;;;5.20;4.70;;;;;;;34.13;77.20;100827.19;5382619;26;69033;-30
2024/04/16 04:20:41;;;;;;;5.15;4.57;;;;;;;34.13;77.49;100817.16;5379528;26;65242;-31
2024/04/16 04:23:14;;;;;;;5.15;4.68;;;;;;;34.17;77.26;100812.84;5384791;26;68480;-31
2024/04/16 04:25:45;;;;;;;5.72;5.32;;;;;;;34.20;77.22;100817.00;5381645;26;64923;-32
2024/04/16 04:28:22;;;;;;;5.35;4.78;;;;;;;34.21;77.34;100814.03;5380805;26;68677;-31
2024/04/16 04:31:14;;;;;;;5.13;4.63;;;;;;;34.09;77.05;100788.75;5390163;26;65963;-34
2024/04/16 04:33:47;;;;;;;13.05;4.68;;;;;;;34.29;77.01;100809.25;5392326;26;69085;-31
2024/04/16 04:36:18;;;;;;;6.45;5.10;;;;;;;34.26;77.70;100795.03;5399744;26;64516;-31
2024/04/16 04:38:50;;;;;;;8.65;4.38;;;;;;;34.34;77.09;100801.97;5387365;26;68567;-32
2024/04/16 04:41:21;;;;;;;4.87;4.57;;;;;;;34.35;77.03;100786.47;5379488;26;63678;-32
2024/04/16 04:43:55;;;;;;;5.03;4.63;;;;;;;34.39;76.98;100771.31;5390878;26;68754;-31
2024/04/16 04:46:27;;;;;;;7.47;4.90;;;;;;;34.43;76.90;100777.91;5388322;26;66775;-32
2024/04/16 04:48:58;;;;;;;10.18;5.10;;;;;;;34.47;77.70;100779.06;5391336;26;69752;-31
2024/04/16 04:51:31;;;;;;;5.10;4.70;;;;;;;34.48;77.28;100775.25;5391575;26;64974;-33
2024/04/16 04:54:03;;;;;;;5.60;5.10;;;;;;;34.52;77.25;100762.81;5390429;26;68840;-31
2024/04/16 04:56:38;;;;;;;5.40;5.00;;;;;;;34.54;77.06;100760.63;5388788;26;64908;-32
2024/04/16 04:59:09;;;;;;;5.78;5.13;;;;;;;34.57;77.13;100749.28;5388985;26;68876;-33
2024/04/16 05:01:40;;;;;;;5.60;4.82;;;;;;;34.57;76.74;100741.09;5390842;26;64320;-31
2024/04/16 05:04:11;;;;;;;6.97;4.80;;;;;;;34.62;77.13;100743.09;5390998;26;68519;-32
2024/04/16 05:06:43;;;;;;;5.13;4.72;;;;;;;34.65;76.35;100743.41;5387410;26;64989;-33
2024/04/16 05:09:15;;;;;;;5.28;4.80;;;;;;;34.70;76.85;100734.50;5396986;26;67641;-34
2024/04/16 05:11:50;;;;;;;5.35;4.85;;;;;;;34.52;76.27;100692.00;5390511;26;64135;-32
2024/04/16 05:14:25;;;;;;;5.50;4.88;;;;;;;34.75;76.32;100717.41;5358217;26;68685;-36
2024/04/16 05:16:58;;;;;;;5.40;5.00;;;;;;;34.78;76.29;100714.19;5391343;26;66071;-32
2024/04/16 05:19:33;;;;;;;5.45;4.82;;;;;;;34.79;76.67;100702.19;5385509;26;69108;-31
2024/04/16 05:22:04;;;;;;;4.90;4.60;;;;;;;34.81;76.09;100703.59;5385024;26;65544;-32
2024/04/16 05:24:34;;;;;;;5.10;4.60;;;;;;;34.81;76.38;100709.03;5388317;26;68765;-32
2024/04/16 05:27:06;;;;;;;4.53;4.15;;;;;;;34.88;76.00;100697.94;5386626;26;64407;-31
2024/04/16 05:29:37;;;;;;;5.03;4.45;;;;;;;34.89;76.05;100695.00;5389701;26;69148;-32
2024/04/16 05:32:11;;;;;;;4.50;4.18;;;;;;;34.87;75.81;100677.25;5390344;26;64082;-31
2024/04/16 05:34:42;;;;;;;5.65;4.25;;;;;;;34.95;76.12;100681.44;5388945;26;69283;-32
2024/04/16 05:37:13;;;;;;;5.00;4.57;;;;;;;34.97;76.05;100680.09;5381455;26;64741;-32
2024/04/16 05:39:44;;;;;;;6.13;4.67;;;;;;;34.99;75.60;100663.47;5388422;26;68753;-32
2024/04/16 05:42:15;;;;;;;5.43;4.97;;;;;;;35.04;75.64;100669.81;5370297;26;64934;-34
2024/04/16 05:44:46;;;;;;;5.15;4.75;;;;;;;35.07;75.77;100663.88;5400974;26;67956;-31
2024/04/16 05:47:19;;;;;;;4.23;3.93;;;;;;;35.10;75.56;100668.84;5384539;26;64678;-30
2024/04/16 05:49:50;;;;;;;5.32;4.82;;;;;;;35.13;75.44;100652.00;5385886;26;67858;-31
2024/04/16 05:52:23;;;;;;;4.85;4.55;;;;;;;35.18;75.27;100645.75;5385751;26;64929;-31
2024/04/16 05:54:54;;;;;;;5.13;4.72;;;;;;;35.20;75.43;100648.22;5381723;26;69333;-30
2024/04/16 05:57:25;;;;;;;5.00;4.63;;;;;;;35.24;75.75;100652.09;5383636;26;64075;-32
2024/04/16 05:59:56;;;;;;;4.68;4.32;;;;;;;35.27;75.44;100638.78;5383963;26;68594;-31
2024/04/16 06:02:32;;;;;;;4.57;4.18;;;;;;;35.31;75.18;100639.09;5383501;26;65722;-31
2024/04/16 06:05:04;;;;;;;5.82;4.65;;;;;;;35.33;76.20;100617.84;5384991;26;68541;-31
2024/04/16 06:07:35;;;;;;;4.80;4.40;;;;;;;35.36;75.58;100623.59;5386240;26;65213;-31
2024/04/16 06:10:07;;;;;;;4.90;4.30;;;;;;;35.40;75.64;100615.72;5384954;26;69325;-31
2024/04/16 06:12:37;;;;;;;;;;;;;;;35.33;74.68;100591.38;5385167;26;65085;-33
2024/04/16 06:15:08;;;;;;;4.28;3.90;;;;;;;35.49;75.18;100611.44;5383217;26;68124;-31
2024/04/16 06:17:40;;;;;;;3.80;3.60;;;;;;;35.52;74.56;100602.75;5384105;26;64412;-33
2024/04/16 06:20:13;;;;;;;4.20;3.90;;;;;;;35.56;74.67;100584.00;5417309;26;67958;-34
2024/04/16 06:22:46;;;;;;;5.78;3.90;;;;;;;35.60;74.63;100573.38;5360195;26;65013;-32
2024/04/16 06:25:20;;;;;;;4.28;3.90;;;;;;;35.65;74.78;100581.59;5385056;26;68814;-31
2024/04/16 06:27:54;;;;;;;4.20;3.90;;;;;;;35.69;75.03;100571.81;5385570;26;63967;-31
2024/04/16 06:30:27;;;;;;;3.83;3.53;;;;;;;35.73;74.72;100571.03;5381658;26;68744;-32
2024/04/16 06:33:00;;;;;;;6.10;4.22;;;;;;;35.78;74.25;100570.25;5382348;26;64003;-31
2024/04/16 06:35:31;;;;;;;4.20;3.80;;;;;;;35.81;74.49;100567.00;5382728;26;68499;-31
2024/04/16 06:38:02;;;;;;;;;;;;;;;35.75;74.50;100566.13;5386005;26;65379;-32
2024/04/16 06:40:33;;;;;;;4.03;3.70;;;;;;;35.91;74.00;100564.34;5382902;26;68079;-31
2024/04/16 06:43:04;;;;;;;4.03;3.72;;;;;;;35.97;74.57;100557.84;5380860;26;65102;-31
2024/04/16 06:45:35;;;;;;;4.03;3.63;;;;;;;36.01;74.43;100552.66;5385342;26;68654;-32
2024/04/16 06:48:07;;;;;;;3.88;3.65;;;;;;;36.06;74.56;100549.19;5384029;26;65273;-32
2024/04/16 06:50:46;;;;;;;5.20;3.72;;;;;;;36.06;73.64;100533.63;5381013;26;68766;-32
2024/04/16 06:53:17;;;;;;;3.88;3.60;;;;;;;36.17;74.00;100539.97;5396435;26;64665;-32
2024/04/16 06:55:59;;;;;;;3.92;3.63;;;;;;;36.14;73.47;100529.56;5384334;26;68702;-31
2024/04/16 06:58:31;;;;;;;;;;;;;;;36.17;73.27;100534.50;5386050;26;65728;-32
2024/04/16 07:01:02;;;;;;;3.28;3.00;;;;;;;36.34;73.36;100540.59;5384794;26;67614;-31
2024/04/16 07:03:33;;;;;;;4.38;3.75;;;;;;;36.39;73.54;100537.06;5382721;26;65182;-33
2024/04/16 07:06:05;;;;;;;4.75;3.60;;;;;;;36.44;73.38;100539.81;5386116;26;69843;-32
2024/04/16 07:08:36;;;;;;;9.10;3.53;;;;;;;36.49;73.77;100530.81;5384557;26;65082;-32
2024/04/16 07:11:12;;;;;;;4.00;3.70;;;;;;;36.55;72.98;100524.31;5384198;26;69261;-31
2024/04/16 07:13:45;;;;;;;3.90;3.13;;;;;;;36.61;73.45;100528.69;5383118;26;65177;-31
2024/04/16 07:16:16;;;;;;;3.95;3.00;;;;;;;36.63;73.26;100529.25;5381838;26;69099;-31
2024/04/16 07:18:50;;;;;;;3.43;3.13;;;;;;;36.70;72.56;100532.56;5362917;26;64541;-32
2024/04/16 07:21:21;;;;;;;3.60;3.30;;;;;;;36.72;73.07;100518.63;5383930;26;68831;-32
2024/04/16 07:23:53;;;;;;;3.42;3.22;;;;;;;36.83;72.83;100520.28;5351883;26;65503;-32
2024/04/16 07:26:24;;;;;;;4.65;3.30;;;;;;;36.89;72.89;100528.25;5394411;26;68561;-31
2024/04/16 07:28:56;;;;;;;3.65;3.08;;;;;;;36.94;73.02;100526.59;5393251;26;63666;-32
2024/04/16 07:31:27;;;;;;;2.92;2.72;;;;;;;37.02;72.71;100523.38;5363039;26;69276;-32
2024/04/16 07:34:10;;;;;;;3.10;2.90;;;;;;;37.09;71.97;100516.56;5382196;26;64128;-35
2024/04/16 07:36:41;;;;;;;3.60;3.03;;;;;;;37.16;72.60;100519.00;5382385;26;70770;-34
2024/04/16 07:39:14;;;;;;;;;;;;;;;37.15;70.68;100513.84;5385549;26;64533;-35
2024/04/16 07:41:46;;;;;;;3.45;3.15;;;;;;;37.15;71.61;100483.75;5405484;26;68522;-31
2024/04/16 07:44:19;;;;;;;4.57;2.88;;;;;;;37.33;72.14;100500.44;5381196;26;66398;-32
2024/04/16 07:46:50;;;;;;;3.05;2.80;;;;;;;37.40;72.15;100499.34;5385063;26;68936;-32
2024/04/16 07:49:21;;;;;;;;;;;;;;;37.26;70.99;100486.22;5385250;26;64473;-32
2024/04/16 07:51:52;;;;;;;2.95;2.75;;;;;;;37.50;70.97;100507.56;5384169;26;68988;-32
2024/04/16 07:54:23;;;;;;;2.47;2.28;;;;;;;37.54;71.81;100503.19;5383093;26;66965;-33
2024/04/16 07:56:56;;;;;;;5.15;2.40;;;;;;;37.58;71.85;100501.53;5379802;26;68977;-33
2024/04/16 07:59:29;;;;;;;2.75;2.55;;;;;;;37.63;71.65;100504.25;5386702;26;64946;-32
2024/04/16 08:02:02;;;;;;;2.92;2.40;;;;;;;37.67;71.10;100502.63;5396404;26;68815;-32
2024/04/16 08:04:34;;;;;;;2.63;2.20;;;;;;;37.70;70.82;100502.06;5380220;26;65209;-36
2024/04/16 08:07:07;;;;;;;2.42;2.22;;;;;;;37.72;70.67;100510.00;5384073;26;69376;-31
2024/04/16 08:09:40;;;;;;;2.40;2.20;;;;;;;37.77;71.27;100491.66;5383669;26;64879;-33
2024/04/16 08:12:11;;;;;;;3.53;2.40;;;;;;;37.82;71.20;100495.47;5411929;26;69853;-35
2024/04/16 08:14:42;;;;;;;2.60;2.40;;;;;;;37.84;70.44;100501.50;5385084;26;64035;-32
2024/04/16 08:17:13;;;;;;;4.63;1.98;;;;;;;37.86;70.87;100496.56;5382876;26;69138;-32
2024/04/16 08:19:44;;;;;;;3.42;2.38;;;;;;;37.89;71.32;100482.31;5371297;26;64875;-30
2024/04/16 08:22:16;;;;;;;2.50;2.30;;;;;;;37.91;70.80;100493.81;5384057;26;68598;-34
2024/04/16 08:24:49;;;;;;;2.50;2.30;;;;;;;37.95;70.84;100490.28;5379701;26;65355;-32
2024/04/16 08:27:24;;;;;;;3.42;2.45;;;;;;;37.96;70.53;100489.16;5375597;26;68697;-33
2024/04/16 08:29:54;;;;;;;2.20;2.00;;;;;;;37.98;70.34;100491.63;5363583;26;64991;-33
2024/04/16 08:32:25;;;;;;;2.00;1.90;;;;;;;37.99;71.23;100485.06;5379635;26;69128;-34
2024/04/16 08:34:57;;;;;;;2.35;2.13;;;;;;;38.01;70.84;100482.88;5393926;26;65209;-34
2024/04/16 08:37:30;;;;;;;3.20;2.40;;;;;;;38.02;71.08;100476.28;5383022;26;68504;-33
2024/04/16 08:40:02;;;;;;;2.40;2.20;;;;;;;38.03;71.05;100475.19;5382225;26;65484;-33
2024/04/16 08:42:34;;;;;;;2.30;1.98;;;;;;;38.07;71.02;100483.66;5380808;26;68088;-31
2024/04/16 08:45:05;;;;;;;;;;;;;;;37.99;69.15;100476.84;5381173;26;64221;-33
2024/04/16 08:47:39;;;;;;;1.90;1.70;;;;;;;38.09;69.97;100485.03;5373111;26;68722;-32
2024/04/16 08:50:11;;;;;;;3.08;2.05;;;;;;;38.08;70.51;100480.63;5383018;26;65193;-31
2024/04/16 08:52:42;;;;;;;3.88;2.17;;;;;;;38.06;70.86;100474.63;5378491;26;68509;-32
2024/04/16 08:55:15;;;;;;;2.33;1.80;;;;;;;38.10;70.18;100481.19;5380351;26;65769;-32
2024/04/16 08:57:49;;;;;;;2.15;2.00;;;;;;;38.10;70.93;100478.44;5382023;26;68819;-33
2024/04/16 09:00:23;;;;;;;5.93;2.15;;;;;;;38.09;70.34;100479.56;5373680;26;65657;-33
2024/04/16 09:02:55;;;;;;;2.75;1.92;;;;;;;38.06;70.57;100482.84;5380361;26;68532;-31
2024/04/16 09:05:26;;;;;;;4.43;1.98;;;;;;;38.10;70.89;100489.41;5380952;26;65552;-30
2024/04/16 09:07:57;;;;;;;3.38;2.15;;;;;;;38.09;70.63;100486.97;5373137;26;68360;-31
2024/04/16 09:10:29;;;;;;;5.43;2.30;;;;;;;38.09;70.38;100479.56;5378979;26;64150;-31
2024/04/16 09:13:11;;;;;;;2.47;2.03;;;;;;;38.05;69.67;100486.69;5380068;26;67840;-31
2024/04/16 09:15:43;;;;;;;3.55;2.47;;;;;;;38.10;69.81;100488.59;5382185;26;64569;-32
2024/04/16 09:18:22;;;;;;;3.00;2.08;;;;;;;38.10;70.20;100477.63;5385735;26;69190;-32
2024/04/16 09:20:55;;;;;;;6.80;2.00;;;;;;;37.87;70.76;100451.66;5381606;26;65098;-32
2024/04/16 09:23:26;;;;;;;3.22;2.20;;;;;;;37.97;69.79;100476.28;5384923;26;69392;-31
2024/04/16 09:25:58;;;;;;;4.55;2.72;;;;;;;37.93;71.01;100475.19;5382741;26;63763;-31
2024/04/16 09:28:29;;;;;;;4.47;2.63;;;;;;;37.91;70.13;100488.34;5386320;26;69156;-31
2024/04/16 09:31:00;;;;;;;8.57;2.10;;;;;;;37.84;70.13;100479.59;5385175;26;64578;-32
2024/04/16 09:33:32;;;;;;;5.15;2.47;;;;;;;37.80;70.53;100484.78;5384580;26;68852;-31
2024/04/16 09:36:27;;;;;;;4.07;2.60;;;;;;;37.69;71.05;100473.03;5383785;26;65201;-31
2024/04/16 09:38:59;;;;;;;8.40;2.55;;;;;;;37.66;70.11;100476.34;5385223;26;67877;-31
2024/04/16 09:41:31;;;;;;;8.55;2.60;;;;;;;37.67;70.96;100485.38;5390978;26;65519;-31
2024/04/16 09:44:08;;;;;;;4.78;2.70;;;;;;;37.62;70.70;100483.47;5386918;26;67990;-31
2024/04/16 09:46:44;;;;;;;3.28;2.50;;;;;;;37.54;70.42;100489.50;5385589;26;64801;-32
2024/04/16 09:49:19;;;;;;;9.45;2.85;;;;;;;37.37;70.91;100458.84;5363219;26;68785;-31
2024/04/16 09:51:50;;;;;;;11.05;3.10;;;;;;;37.53;70.54;100496.09;5385144;26;64081;-31
2024/04/16 09:54:23;;;;;;;9.15;2.85;;;;;;;37.37;69.60;100475.28;5384448;26;68062;-31
2024/04/16 09:56:56;;;;;;;6.35;2.97;;;;;;;37.48;70.01;100494.16;5374039;26;64993;-32
2024/04/16 09:59:29;;;;;;;4.90;2.80;;;;;;;37.48;70.09;100501.53;5385249;26;67576;-30
2024/04/16 10:02:02;;;;;;;5.32;2.80;;;;;;;37.44;70.35;100505.88;5385651;26;65105;-32
2024/04/16 10:04:33;;;;;;;3.63;2.63;;;;;;;37.34;70.52;100499.34;5381574;26;67963;-32
2024/04/16 10:07:04;;;;;;;;;;;;;;;37.21;70.23;100513.56;5385726;26;64413;-31
2024/04/16 10:09:35;;;;;;;3.50;2.80;;;;;;;37.27;69.86;100506.16;5385362;26;68656;-31
2024/04/16 10:12:08;;;;;;;6.78;2.78;;;;;;;37.29;70.66;100512.19;5384942;26;65016;-31
2024/04/16 10:14:42;;;;;;;11.57;2.80;;;;;;;37.02;70.39;100474.16;5384583;26;68105;-31
2024/04/16 10:17:14;;;;;;;2.60;2.40;;;;;;;37.16;71.36;100513.53;5404497;26;65033;-31
2024/04/16 10:19:45;;;;;;;4.68;3.10;;;;;;;37.14;70.67;100523.97;5384843;26;67967;-31
2024/04/16 10:22:16;;;;;;;4.10;3.00;;;;;;;37.12;71.16;100518.75;5386871;26;64894;-31
2024/04/16 10:24:56;;;;;;;3.47;3.15;;;;;;;37.10;70.80;100528.31;5362448;26;68805;-32
2024/04/16 10:27:26;;;;;;;4.20;2.83;;;;;;;37.08;71.85;100534.06;5387039;26;64413;-31
2024/04/16 10:30:15;;;;;;;4.85;3.40;;;;;;;36.98;71.35;100530.47;5387294;26;68713;-31
2024/04/16 10:32:49;;;;;;;4.97;3.00;;;;;;;37.02;71.83;100545.25;5379484;26;65003;-32
2024/04/16 10:35:21;;;;;;;8.68;3.17;;;;;;;36.95;71.67;100544.66;5373589;26;68626;-32
2024/04/16 10:37:52;;;;;;;3.97;3.10;;;;;;;36.96;71.29;100547.13;5385727;26;64497;-32
2024/04/16 10:40:29;;;;;;;4.10;3.47;;;;;;;36.94;72.39;100543.00;5387801;26;67826;-31
2024/04/16 10:43:01;;;;;;;16.77;7.43;;;;;;;36.91;72.43;100553.38;5385196;26;64940;-31
2024/04/16 10:45:32;;;;;;;24.98;10.95;;;;;;;36.90;73.32;100549.03;5387303;26;68237;-31
2024/04/16 10:48:03;;;;;;;41.80;14.15;;;;;;;36.85;73.67;100557.19;5396586;26;64768;-33
2024/04/16 10:50:39;;;;;;;48.67;15.02;;;;;;;36.64;73.32;100522.72;5385405;26;68775;-32
2024/04/16 10:53:14;;;;;;;36.40;11.82;;;;;;;36.85;73.32;100557.19;5388189;26;64536;-31
2024/04/16 10:55:46;;;;;;;54.85;12.65;;;;;;;36.71;74.42;100556.06;5385639;26;68799;-33
2024/04/16 10:58:20;;;;;;;42.05;11.82;;;;;;;36.76;73.81;100555.28;5373732;26;65068;-32
2024/04/16 11:00:55;;;;;;;21.92;9.27;;;;;;;36.75;74.01;100559.94;5387818;26;68798;-31
2024/04/16 11:03:26;;;;;;;23.33;9.52;;;;;;;36.66;74.39;100566.97;5383509;26;64292;-32
2024/04/16 11:05:57;;;;;;;19.38;8.32;;;;;;;36.61;74.20;100561.47;5385416;26;67864;-31
2024/04/16 11:08:28;;;;;;;24.63;12.33;;;;;;;36.63;73.61;100562.06;5370692;26;65535;-31
2024/04/16 11:10:59;;;;;;;41.63;20.93;;;;;;;36.56;74.53;100565.03;5383827;26;69112;-32
2024/04/16 11:13:32;;;;;;;46.45;18.90;;;;;;;36.54;74.25;100566.38;5387296;26;65120;-32
2024/04/16 11:16:03;;;;;;;35.55;18.30;;;;;;;36.53;74.15;100565.56;5386705;26;68303;-32
2024/04/16 11:18:36;;;;;;;25.45;15.13;;;;;;;36.47;74.92;100572.06;5395064;26;65182;-31
2024/04/16 11:21:07;;;;;;;19.80;12.50;;;;;;;36.43;74.90;100569.03;5399463;26;68807;-31
2024/04/16 11:23:39;;;;;;;18.05;9.48;;;;;;;36.39;74.62;100570.66;5380703;26;64727;-31
2024/04/16 11:26:10;;;;;;;18.27;8.98;;;;;;;36.36;75.38;100579.41;5385047;26;68421;-31
2024/04/16 11:28:42;;;;;;;11.85;8.32;;;;;;;36.32;75.64;100580.19;5384577;26;66642;-31
2024/04/16 11:31:13;;;;;;;8.27;6.43;;;;;;;36.33;74.64;100590.84;5380383;26;68864;-32
2024/04/16 11:33:45;;;;;;;10.87;7.17;;;;;;;36.29;75.50;100597.91;5387356;26;65130;-34
2024/04/16 11:36:18;;;;;;;12.63;6.63;;;;;;;36.28;75.26;100599.00;5384007;26;67493;-33
2024/04/16 11:38:51;;;;;;;11.38;5.40;;;;;;;36.22;75.78;100605.53;5384653;26;66208;-31
2024/04/16 11:41:23;;;;;;;7.20;4.70;;;;;;;36.17;76.11;100600.03;5374758;26;69158;-33
2024/04/16 11:43:54;;;;;;;15.13;5.25;;;;;;;36.14;75.81;100606.03;5386794;26;65159;-32
2024/04/16 11:46:28;;;;;;;4.97;4.32;;;;;;;36.09;76.59;100595.88;5387440;26;68670;-31
2024/04/16 11:49:00;;;;;;;6.40;4.53;;;;;;;36.11;76.00;100607.38;5397021;26;64934;-33
2024/04/16 11:51:33;;;;;;;10.50;4.05;;;;;;;36.03;76.35;100611.38;5399372;26;68236;-31